sensor_id;sensor_type;location;lat;lon;timestamp;pressure;altitude;pressure_sealevel;temperature;humidity
57056;BME280;42945;51.718;5.324;2022-10-16T00:00:40;100737.75;;;10.54;100.00
57056;BME280;42945;51.718;5.324;2022-10-16T00:03:05;100758.66;;;10.28;100.00
57056;BME280;42945;51.718;5.324;2022-10-16T00:05:31;100749.16;;;10.40;100.00
57056;BME280;42945;51.718;5.324;2022-10-16T00:07:56;100688.56;;;9.72;100.00
57056;BME280;42945;51.718;5.324;2022-10-16T00:10:22;100775.34;;;10.30;100.00
57056;BME280;42945;51.718;5.324;2022-10-16T00:12:47;100676.59;;;9.64;100.00
57056;BME280;42945;51.718;5.324;2022-10-16T00:15:13;100815.88;;;10.32;100.00
57056;BME280;42945;51.718;5.324;2022-10-16T00:17:38;100667.81;;;9.64;100.00
57056;BME280;42945;51.718;5.324;2022-10-16T00:20:04;100782.19;;;10.34;100.00
57056;BME280;42945;51.718;5.324;2022-10-16T00:22:29;100722.28;;;10.16;100.00
57056;BME280;42945;51.718;5.324;2022-10-16T00:24:54;100760.97;;;10.18;100.00
57056;BME280;42945;51.718;5.324;2022-10-16T00:27:19;100744.41;;;10.15;100.00
57056;BME280;42945;51.718;5.324;2022-10-16T00:29:45;100776.44;;;10.26;100.00
57056;BME280;42945;51.718;5.324;2022-10-16T00:32:10;100780.31;;;10.20;100.00
57056;BME280;42945;51.718;5.324;2022-10-16T00:34:35;100740.13;;;10.12;100.00
57056;BME280;42945;51.718;5.324;2022-10-16T00:37:00;100824.59;;;10.34;100.00
57056;BME280;42945;51.718;5.324;2022-10-16T00:39:25;100762.09;;;10.30;100.00
57056;BME280;42945;51.718;5.324;2022-10-16T00:41:51;100712.22;;;10.21;100.00
57056;BME280;42945;51.718;5.324;2022-10-16T00:47:00;100717.53;;;10.21;100.00
57056;BME280;42945;51.718;5.324;2022-10-16T00:49:25;100601.69;;;9.62;100.00
57056;BME280;42945;51.718;5.324;2022-10-16T00:51:51;100732.16;;;10.28;100.00
57056;BME280;42945;51.718;5.324;2022-10-16T00:54:26;100677.38;;;9.66;100.00
57056;BME280;42945;51.718;5.324;2022-10-16T00:56:52;100775.41;;;10.44;100.00
57056;BME280;42945;51.718;5.324;2022-10-16T00:59:20;100811.06;;;10.39;100.00
57056;BME280;42945;51.718;5.324;2022-10-16T01:01:45;100802.88;;;10.43;100.00
57056;BME280;42945;51.718;5.324;2022-10-16T01:04:11;100779.94;;;10.42;100.00
57056;BME280;42945;51.718;5.324;2022-10-16T01:09:16;100753.78;;;10.36;100.00
57056;BME280;42945;51.718;5.324;2022-10-16T01:14:12;100769.66;;;10.52;100.00
57056;BME280;42945;51.718;5.324;2022-10-16T01:16:42;100761.00;;;10.64;100.00
57056;BME280;42945;51.718;5.324;2022-10-16T01:19:12;100810.72;;;10.61;100.00
57056;BME280;42945;51.718;5.324;2022-10-16T01:21:40;100790.25;;;10.63;100.00
57056;BME280;42945;51.718;5.324;2022-10-16T01:29:25;100764.34;;;10.52;100.00
57056;BME280;42945;51.718;5.324;2022-10-16T01:31:54;100646.00;;;9.91;100.00
57056;BME280;42945;51.718;5.324;2022-10-16T01:34:22;100775.94;;;10.66;100.00
57056;BME280;42945;51.718;5.324;2022-10-16T01:36:54;100717.31;;;9.94;100.00
57056;BME280;42945;51.718;5.324;2022-10-16T01:39:21;100774.63;;;10.42;100.00
57056;BME280;42945;51.718;5.324;2022-10-16T01:41:58;100654.19;;;9.86;100.00
57056;BME280;42945;51.718;5.324;2022-10-16T01:44:26;100690.69;;;9.81;100.00
57056;BME280;42945;51.718;5.324;2022-10-16T01:46:53;100681.44;;;9.88;100.00
57056;BME280;42945;51.718;5.324;2022-10-16T01:49:19;100775.75;;;10.38;100.00
57056;BME280;42945;51.718;5.324;2022-10-16T01:51:46;100646.34;;;9.69;100.00
57056;BME280;42945;51.718;5.324;2022-10-16T01:54:13;100782.34;;;10.47;100.00
57056;BME280;42945;51.718;5.324;2022-10-16T01:56:39;100620.75;;;9.53;100.00
57056;BME280;42945;51.718;5.324;2022-10-16T01:59:06;100793.03;;;10.14;100.00
57056;BME280;42945;51.718;5.324;2022-10-16T02:01:33;100825.97;;;10.25;100.00
57056;BME280;42945;51.718;5.324;2022-10-16T02:04:01;100773.13;;;10.07;100.00
57056;BME280;42945;51.718;5.324;2022-10-16T02:06:27;100733.19;;;10.10;100.00
57056;BME280;42945;51.718;5.324;2022-10-16T02:08:54;100765.00;;;10.10;100.00
57056;BME280;42945;51.718;5.324;2022-10-16T02:11:20;100796.78;;;10.10;100.00
57056;BME280;42945;51.718;5.324;2022-10-16T02:13:46;100765.19;;;10.07;100.00
57056;BME280;42945;51.718;5.324;2022-10-16T02:16:13;100820.41;;;10.30;100.00
57056;BME280;42945;51.718;5.324;2022-10-16T02:18:39;100742.91;;;10.25;100.00
57056;BME280;42945;51.718;5.324;2022-10-16T02:23:34;100639.63;;;9.47;100.00
57056;BME280;42945;51.718;5.324;2022-10-16T02:26:00;100663.53;;;9.45;100.00
57056;BME280;42945;51.718;5.324;2022-10-16T02:28:31;100740.47;;;10.06;100.00
57056;BME280;42945;51.718;5.324;2022-10-16T02:31:01;100814.84;;;10.19;100.00
57056;BME280;42945;51.718;5.324;2022-10-16T02:33:28;100803.81;;;10.11;100.00
57056;BME280;42945;51.718;5.324;2022-10-16T02:35:54;100768.94;;;10.18;100.00
57056;BME280;42945;51.718;5.324;2022-10-16T02:38:20;100786.09;;;10.27;100.00
57056;BME280;42945;51.718;5.324;2022-10-16T02:40:46;100803.47;;;10.17;100.00
57056;BME280;42945;51.718;5.324;2022-10-16T02:43:12;100661.66;;;9.48;100.00
57056;BME280;42945;51.718;5.324;2022-10-16T02:45:38;100833.31;;;10.20;100.00
57056;BME280;42945;51.718;5.324;2022-10-16T02:48:03;100707.19;;;9.54;100.00
57056;BME280;42945;51.718;5.324;2022-10-16T02:50:29;100761.47;;;10.25;100.00
57056;BME280;42945;51.718;5.324;2022-10-16T02:52:54;100774.81;;;10.08;100.00
57056;BME280;42945;51.718;5.324;2022-10-16T02:55:19;100756.34;;;10.06;100.00
57056;BME280;42945;51.718;5.324;2022-10-16T02:57:44;100758.50;;;10.15;100.00
57056;BME280;42945;51.718;5.324;2022-10-16T03:00:11;100743.91;;;10.08;0.00
57056;BME280;42945;51.718;5.324;2022-10-16T03:02:37;100785.06;;;10.14;100.00
57056;BME280;42945;51.718;5.324;2022-10-16T03:05:02;100679.06;;;9.36;100.00
57056;BME280;42945;51.718;5.324;2022-10-16T03:07:27;100787.72;;;10.14;100.00
57056;BME280;42945;51.718;5.324;2022-10-16T03:09:52;100797.06;;;10.05;100.00
57056;BME280;42945;51.718;5.324;2022-10-16T03:12:18;100804.16;;;10.04;100.00
57056;BME280;42945;51.718;5.324;2022-10-16T03:14:43;100777.22;;;9.96;100.00
57056;BME280;42945;51.718;5.324;2022-10-16T03:17:08;100656.22;;;9.35;100.00
57056;BME280;42945;51.718;5.324;2022-10-16T03:19:33;100664.16;;;9.35;100.00
57056;BME280;42945;51.718;5.324;2022-10-16T03:21:59;100786.63;;;10.02;100.00
57056;BME280;42945;51.718;5.324;2022-10-16T03:24:25;100808.78;;;10.01;100.00
57056;BME280;42945;51.718;5.324;2022-10-16T03:26:50;100719.28;;;9.26;100.00
57056;BME280;42945;51.718;5.324;2022-10-16T03:29:15;100729.84;;;9.26;100.00
57056;BME280;42945;51.718;5.324;2022-10-16T03:31:41;100835.69;;;10.09;100.00
57056;BME280;42945;51.718;5.324;2022-10-16T03:34:06;100660.41;;;9.23;100.00
57056;BME280;42945;51.718;5.324;2022-10-16T03:36:31;100817.06;;;9.95;100.00
57056;BME280;42945;51.718;5.324;2022-10-16T03:38:57;100783.06;;;9.87;100.00
57056;BME280;42945;51.718;5.324;2022-10-16T03:41:22;100779.97;;;9.79;100.00
57056;BME280;42945;51.718;5.324;2022-10-16T03:43:47;100804.94;;;9.91;100.00
57056;BME280;42945;51.718;5.324;2022-10-16T03:46:12;100729.41;;;9.18;100.00
57056;BME280;42945;51.718;5.324;2022-10-16T03:48:37;100797.22;;;9.86;100.00
57056;BME280;42945;51.718;5.324;2022-10-16T03:51:04;100800.16;;;9.81;100.00
57056;BME280;42945;51.718;5.324;2022-10-16T03:53:30;100691.03;;;9.11;100.00
57056;BME280;42945;51.718;5.324;2022-10-16T03:55:55;100813.31;;;9.83;100.00
57056;BME280;42945;51.718;5.324;2022-10-16T03:58:20;100717.22;;;9.16;100.00
57056;BME280;42945;51.718;5.324;2022-10-16T04:00:46;100814.31;;;9.80;100.00
57056;BME280;42945;51.718;5.324;2022-10-16T04:03:12;100650.94;;;8.52;100.00
57056;BME280;42945;51.718;5.324;2022-10-16T04:05:38;100883.81;;;10.01;100.00
57056;BME280;42945;51.718;5.324;2022-10-16T04:08:03;100829.78;;;9.88;100.00
57056;BME280;42945;51.718;5.324;2022-10-16T04:10:28;100710.91;;;9.18;100.00
57056;BME280;42945;51.718;5.324;2022-10-16T04:12:54;100816.28;;;9.77;100.00
57056;BME280;42945;51.718;5.324;2022-10-16T04:15:22;100728.06;;;9.11;100.00
57056;BME280;42945;51.718;5.324;2022-10-16T04:17:48;100777.75;;;9.87;100.00
57056;BME280;42945;51.718;5.324;2022-10-16T04:20:13;100778.75;;;9.84;100.00
57056;BME280;42945;51.718;5.324;2022-10-16T04:22:38;100814.84;;;9.87;100.00
57056;BME280;42945;51.718;5.324;2022-10-16T04:25:04;100743.88;;;9.29;100.00
57056;BME280;42945;51.718;5.324;2022-10-16T04:27:29;100743.44;;;9.36;100.00
57056;BME280;42945;51.718;5.324;2022-10-16T04:29:56;100835.28;;;10.01;100.00
57056;BME280;42945;51.718;5.324;2022-10-16T04:32:21;100722.09;;;9.23;100.00
57056;BME280;42945;51.718;5.324;2022-10-16T04:34:47;100832.84;;;9.80;100.00
57056;BME280;42945;51.718;5.324;2022-10-16T04:37:12;100829.34;;;9.80;100.00
57056;BME280;42945;51.718;5.324;2022-10-16T04:39:37;100802.59;;;9.19;100.00
57056;BME280;42945;51.718;5.324;2022-10-16T04:42:02;100749.63;;;9.03;100.00
57056;BME280;42945;51.718;5.324;2022-10-16T04:44:28;100855.00;;;9.79;100.00
57056;BME280;42945;51.718;5.324;2022-10-16T04:46:53;100846.28;;;9.77;100.00
57056;BME280;42945;51.718;5.324;2022-10-16T04:49:18;100892.41;;;9.73;100.00
57056;BME280;42945;51.718;5.324;2022-10-16T04:51:44;100751.00;;;9.11;100.00
57056;BME280;42945;51.718;5.324;2022-10-16T04:54:09;100862.06;;;9.79;100.00
57056;BME280;42945;51.718;5.324;2022-10-16T04:56:35;100777.53;;;9.09;100.00
57056;BME280;42945;51.718;5.324;2022-10-16T04:59:07;100762.06;;;9.01;100.00
57056;BME280;42945;51.718;5.324;2022-10-16T05:01:32;100783.91;;;9.05;100.00
57056;BME280;42945;51.718;5.324;2022-10-16T05:03:58;100892.31;;;9.75;100.00
57056;BME280;42945;51.718;5.324;2022-10-16T05:06:23;100735.72;;;9.00;100.00
57056;BME280;42945;51.718;5.324;2022-10-16T05:08:48;100848.63;;;9.50;100.00
57056;BME280;42945;51.718;5.324;2022-10-16T05:11:13;100887.03;;;9.57;100.00
57056;BME280;42945;51.718;5.324;2022-10-16T05:13:38;100909.31;;;9.53;100.00
57056;BME280;42945;51.718;5.324;2022-10-16T05:16:04;100808.84;;;8.83;100.00
57056;BME280;42945;51.718;5.324;2022-10-16T05:18:29;100825.47;;;8.85;100.00
57056;BME280;42945;51.718;5.324;2022-10-16T05:20:54;131291.00;;;191.27;100.00
57056;BME280;42945;51.718;5.324;2022-10-16T05:23:19;100941.09;;;9.53;100.00
57056;BME280;42945;51.718;5.324;2022-10-16T05:25:51;100836.75;;;8.89;100.00
57056;BME280;42945;51.718;5.324;2022-10-16T05:28:16;100835.44;;;8.80;100.00
57056;BME280;42945;51.718;5.324;2022-10-16T05:30:42;100936.13;;;9.47;100.00
57056;BME280;42945;51.718;5.324;2022-10-16T05:33:07;100901.59;;;9.33;100.00
57056;BME280;42945;51.718;5.324;2022-10-16T05:35:32;100765.03;;;8.78;100.00
57056;BME280;42945;51.718;5.324;2022-10-16T05:37:58;100956.78;;;9.40;100.00
57056;BME280;42945;51.718;5.324;2022-10-16T05:40:24;100937.38;;;9.40;100.00
57056;BME280;42945;51.718;5.324;2022-10-16T05:42:49;100968.03;;;9.44;100.00
57056;BME280;42945;51.718;5.324;2022-10-16T05:45:15;100953.81;;;9.46;100.00
57056;BME280;42945;51.718;5.324;2022-10-16T05:47:40;100726.75;;;8.15;100.00
57056;BME280;42945;51.718;5.324;2022-10-16T05:50:06;100939.41;;;9.35;100.00
57056;BME280;42945;51.718;5.324;2022-10-16T05:52:31;100810.91;;;8.23;100.00
57056;BME280;42945;51.718;5.324;2022-10-16T05:54:57;100991.41;;;9.36;100.00
57056;BME280;42945;51.718;5.324;2022-10-16T05:57:22;100965.78;;;9.36;100.00
57056;BME280;42945;51.718;5.324;2022-10-16T05:59:47;100963.38;;;9.49;100.00
57056;BME280;42945;51.718;5.324;2022-10-16T06:02:12;101013.69;;;9.49;100.00
57056;BME280;42945;51.718;5.324;2022-10-16T06:04:38;101032.44;;;9.44;100.00
57056;BME280;42945;51.718;5.324;2022-10-16T06:07:03;100971.56;;;9.44;100.00
57056;BME280;42945;51.718;5.324;2022-10-16T06:09:28;101005.28;;;9.41;100.00
57056;BME280;42945;51.718;5.324;2022-10-16T06:11:54;100900.63;;;8.81;100.00
57056;BME280;42945;51.718;5.324;2022-10-16T06:14:19;100845.38;;;8.75;100.00
57056;BME280;42945;51.718;5.324;2022-10-16T06:16:44;100966.66;;;9.54;100.00
57056;BME280;42945;51.718;5.324;2022-10-16T06:19:10;100965.09;;;9.50;100.00
57056;BME280;42945;51.718;5.324;2022-10-16T06:21:35;100898.53;;;8.88;100.00
57056;BME280;42945;51.718;5.324;2022-10-16T06:24:00;101028.09;;;9.78;100.00
57056;BME280;42945;51.718;5.324;2022-10-16T06:26:26;100923.84;;;8.94;100.00
57056;BME280;42945;51.718;5.324;2022-10-16T06:28:53;100887.97;;;9.05;100.00
57056;BME280;42945;51.718;5.324;2022-10-16T06:31:19;100918.94;;;9.03;100.00
57056;BME280;42945;51.718;5.324;2022-10-16T06:33:44;100943.22;;;9.12;100.00
57056;BME280;42945;51.718;5.324;2022-10-16T06:36:15;101032.06;;;9.87;100.00
57056;BME280;42945;51.718;5.324;2022-10-16T06:38:41;101092.50;;;10.31;100.00
57056;BME280;42945;51.718;5.324;2022-10-16T06:41:07;101040.41;;;9.97;100.00
57056;BME280;42945;51.718;5.324;2022-10-16T06:43:32;101005.78;;;10.00;100.00
57056;BME280;42945;51.718;5.324;2022-10-16T06:46:00;101050.38;;;10.25;100.00
57056;BME280;42945;51.718;5.324;2022-10-16T06:48:26;101031.25;;;10.20;100.00
57056;BME280;42945;51.718;5.324;2022-10-16T06:50:59;101032.53;;;10.29;100.00
57056;BME280;42945;51.718;5.324;2022-10-16T06:53:24;101037.31;;;10.39;100.00
57056;BME280;42945;51.718;5.324;2022-10-16T06:55:50;101064.50;;;10.43;100.00
57056;BME280;42945;51.718;5.324;2022-10-16T06:58:16;101054.28;;;10.53;100.00
57056;BME280;42945;51.718;5.324;2022-10-16T07:00:41;100939.25;;;9.89;100.00
57056;BME280;42945;51.718;5.324;2022-10-16T07:03:06;101073.34;;;10.59;100.00
57056;BME280;42945;51.718;5.324;2022-10-16T07:05:31;100911.13;;;9.86;100.00
57056;BME280;42945;51.718;5.324;2022-10-16T07:07:57;101103.38;;;10.60;100.00
57056;BME280;42945;51.718;5.324;2022-10-16T07:10:22;101095.41;;;10.60;100.00
57056;BME280;42945;51.718;5.324;2022-10-16T07:12:49;101030.91;;;10.59;100.00
57056;BME280;42945;51.718;5.324;2022-10-16T07:15:14;101123.69;;;10.77;100.00
57056;BME280;42945;51.718;5.324;2022-10-16T07:17:39;100955.31;;;10.19;100.00
57056;BME280;42945;51.718;5.324;2022-10-16T07:20:05;101142.34;;;10.91;100.00
57056;BME280;42945;51.718;5.324;2022-10-16T07:22:30;100991.00;;;10.12;100.00
57056;BME280;42945;51.718;5.324;2022-10-16T07:24:55;100986.81;;;10.08;100.00
57056;BME280;42945;51.718;5.324;2022-10-16T07:27:21;101005.84;;;10.16;100.00
57056;BME280;42945;51.718;5.324;2022-10-16T07:29:48;101115.31;;;10.84;100.00
57056;BME280;42945;51.718;5.324;2022-10-16T07:32:14;101091.63;;;10.97;100.00
57056;BME280;42945;51.718;5.324;2022-10-16T07:34:39;101135.88;;;10.97;100.00
57056;BME280;42945;51.718;5.324;2022-10-16T07:37:04;101181.03;;;11.13;100.00
57056;BME280;42945;51.718;5.324;2022-10-16T07:39:30;101086.06;;;11.02;100.00
57056;BME280;42945;51.718;5.324;2022-10-16T07:41:55;101166.72;;;11.15;100.00
57056;BME280;42945;51.718;5.324;2022-10-16T07:44:20;101129.47;;;11.17;100.00
57056;BME280;42945;51.718;5.324;2022-10-16T07:46:46;101009.50;;;10.47;100.00
57056;BME280;42945;51.718;5.324;2022-10-16T07:49:11;101142.75;;;11.17;100.00
57056;BME280;42945;51.718;5.324;2022-10-16T07:51:36;101116.09;;;11.18;100.00
57056;BME280;42945;51.718;5.324;2022-10-16T07:54:03;101111.75;;;11.17;100.00
57056;BME280;42945;51.718;5.324;2022-10-16T07:56:29;101105.47;;;11.18;100.00
57056;BME280;42945;51.718;5.324;2022-10-16T07:58:55;101059.31;;;10.57;100.00
57056;BME280;42945;51.718;5.324;2022-10-16T08:01:21;101163.91;;;11.34;100.00
57056;BME280;42945;51.718;5.324;2022-10-16T08:03:47;101036.41;;;10.72;100.00
57056;BME280;42945;51.718;5.324;2022-10-16T08:06:13;101144.97;;;11.56;100.00
57056;BME280;42945;51.718;5.324;2022-10-16T08:08:38;129365.63;;;179.99;100.00
57056;BME280;42945;51.718;5.324;2022-10-16T08:11:04;101161.59;;;11.60;100.00
57056;BME280;42945;51.718;5.324;2022-10-16T08:13:29;101161.47;;;11.77;100.00
57056;BME280;42945;51.718;5.324;2022-10-16T08:15:55;101195.81;;;11.80;100.00
57056;BME280;42945;51.718;5.324;2022-10-16T08:18:20;101187.63;;;11.85;100.00
57056;BME280;42945;51.718;5.324;2022-10-16T08:20:45;101177.16;;;11.82;100.00
57056;BME280;42945;51.718;5.324;2022-10-16T08:23:11;101137.56;;;11.93;100.00
57056;BME280;42945;51.718;5.324;2022-10-16T08:25:37;101047.72;;;11.38;100.00
57056;BME280;42945;51.718;5.324;2022-10-16T08:28:03;101209.59;;;12.19;100.00
57056;BME280;42945;51.718;5.324;2022-10-16T08:30:29;101030.16;;;11.51;100.00
57056;BME280;42945;51.718;5.324;2022-10-16T08:32:54;101082.94;;;11.57;100.00
57056;BME280;42945;51.718;5.324;2022-10-16T08:35:20;101214.91;;;12.35;100.00
57056;BME280;42945;51.718;5.324;2022-10-16T08:37:45;101148.50;;;12.48;100.00
57056;BME280;42945;51.718;5.324;2022-10-16T08:40:16;101194.88;;;12.44;100.00
57056;BME280;42945;51.718;5.324;2022-10-16T08:50:29;101258.78;;;12.72;98.68
57056;BME280;42945;51.718;5.324;2022-10-16T08:52:55;101149.81;;;12.40;98.24
57056;BME280;42945;51.718;5.324;2022-10-16T08:58:11;101220.88;;;13.12;96.99
57056;BME280;42945;51.718;5.324;2022-10-16T09:00:37;101245.50;;;13.15;97.12
57056;BME280;42945;51.718;5.324;2022-10-16T09:10:56;101246.84;;;13.37;96.31
57056;BME280;42945;51.718;5.324;2022-10-16T09:13:29;101238.47;;;13.43;96.16
57056;BME280;42945;51.718;5.324;2022-10-16T09:18:32;101257.31;;;13.54;93.44
57056;BME280;42945;51.718;5.324;2022-10-16T09:23:53;101246.25;;;13.61;92.31
57056;BME280;42945;51.718;5.324;2022-10-16T09:26:19;101094.78;;;13.13;91.58
57056;BME280;42945;51.718;5.324;2022-10-16T09:28:51;101222.03;;;14.05;91.58
57056;BME280;42945;51.718;5.324;2022-10-16T09:31:20;101229.03;;;13.93;91.11
57056;BME280;42945;51.718;5.324;2022-10-16T09:33:51;101127.16;;;13.48;90.43
57056;BME280;42945;51.718;5.324;2022-10-16T09:36:17;101245.84;;;14.08;89.47
57056;BME280;42945;51.718;5.324;2022-10-16T09:38:43;101247.81;;;14.19;90.21
57056;BME280;42945;51.718;5.324;2022-10-16T09:41:19;101151.94;;;13.63;90.04
57056;BME280;42945;51.718;5.324;2022-10-16T09:43:49;101030.84;;;12.86;88.86
57056;BME280;42945;51.718;5.324;2022-10-16T09:48:55;101299.59;;;14.29;89.11
57056;BME280;42945;51.718;5.324;2022-10-16T09:53:46;101272.41;;;14.37;88.46
57056;BME280;42945;51.718;5.324;2022-10-16T09:56:20;101285.56;;;14.53;88.70
57056;BME280;42945;51.718;5.324;2022-10-16T09:58:53;92664.19;;;-38.53;81.36
57056;BME280;42945;51.718;5.324;2022-10-16T10:01:18;101168.69;;;14.05;87.41
57056;BME280;42945;51.718;5.324;2022-10-16T10:03:44;101261.34;;;14.56;88.60
57056;BME280;42945;51.718;5.324;2022-10-16T10:11:35;101305.28;;;14.65;87.95
57056;BME280;42945;51.718;5.324;2022-10-16T10:14:23;101290.69;;;14.83;86.02
57056;BME280;42945;51.718;5.324;2022-10-16T10:16:47;101261.19;;;14.72;85.11
57056;BME280;42945;51.718;5.324;2022-10-16T10:19:22;101278.06;;;14.72;86.11
57056;BME280;42945;51.718;5.324;2022-10-16T10:21:47;101233.00;;;14.93;85.25
57056;BME280;42945;51.718;5.324;2022-10-16T10:24:14;101311.81;;;14.86;84.56
57056;BME280;42945;51.718;5.324;2022-10-16T10:26:41;101328.78;;;14.72;83.43
57056;BME280;42945;51.718;5.324;2022-10-16T10:29:16;101323.84;;;15.06;83.69
57056;BME280;42945;51.718;5.324;2022-10-16T10:31:47;101297.13;;;15.32;82.49
57056;BME280;42945;51.718;5.324;2022-10-16T10:36:42;101333.41;;;14.96;82.10
57056;BME280;42945;51.718;5.324;2022-10-16T10:41:56;101304.16;;;15.59;80.39
57056;BME280;42945;51.718;5.324;2022-10-16T10:46:56;101330.53;;;15.12;79.18
57056;BME280;42945;51.718;5.324;2022-10-16T10:49:39;101294.19;;;14.96;80.07
57056;BME280;42945;51.718;5.324;2022-10-16T10:54:36;101305.22;;;14.92;80.75
57056;BME280;42945;51.718;5.324;2022-10-16T10:57:13;101233.97;;;14.80;80.57
57056;BME280;42945;51.718;5.324;2022-10-16T10:59:52;101170.56;;;14.30;80.06
57056;BME280;42945;51.718;5.324;2022-10-16T11:02:26;101292.19;;;15.00;81.30
57056;BME280;42945;51.718;5.324;2022-10-16T11:07:23;101341.44;;;15.22;78.56
57056;BME280;42945;51.718;5.324;2022-10-16T11:09:51;101186.88;;;14.66;79.24
57056;BME280;42945;51.718;5.324;2022-10-16T11:12:29;101273.81;;;15.34;78.05
57056;BME280;42945;51.718;5.324;2022-10-16T11:19:51;101327.44;;;15.82;76.47
57056;BME280;42945;51.718;5.324;2022-10-16T11:22:28;101331.50;;;15.88;74.22
57056;BME280;42945;51.718;5.324;2022-10-16T11:25:00;101274.97;;;15.92;74.21
57056;BME280;42945;51.718;5.324;2022-10-16T11:27:36;101337.25;;;15.94;74.36
57056;BME280;42945;51.718;5.324;2022-10-16T11:30:03;101327.13;;;16.11;74.11
57056;BME280;42945;51.718;5.324;2022-10-16T11:32:32;101310.69;;;16.04;71.79
57056;BME280;42945;51.718;5.324;2022-10-16T11:35:08;101302.25;;;16.22;71.67
57056;BME280;42945;51.718;5.324;2022-10-16T11:37:40;101369.44;;;16.30;71.88
57056;BME280;42945;51.718;5.324;2022-10-16T11:40:24;101230.63;;;15.64;70.19
57056;BME280;42945;51.718;5.324;2022-10-16T11:42:58;101314.06;;;16.19;72.21
57056;BME280;42945;51.718;5.324;2022-10-16T11:45:28;101338.97;;;16.44;70.92
57056;BME280;42945;51.718;5.324;2022-10-16T11:48:05;101243.72;;;15.93;69.85
57056;BME280;42945;51.718;5.324;2022-10-16T11:50:40;101264.19;;;16.89;70.30
57056;BME280;42945;51.718;5.324;2022-10-16T11:55:40;101338.63;;;16.72;68.43
57056;BME280;42945;51.718;5.324;2022-10-16T11:58:07;101375.56;;;16.56;68.56
57056;BME280;42945;51.718;5.324;2022-10-16T12:00:39;101330.38;;;16.51;69.49
57056;BME280;42945;51.718;5.324;2022-10-16T12:05:52;101368.84;;;16.99;67.96
57056;BME280;42945;51.718;5.324;2022-10-16T12:08:19;101478.06;;;17.66;69.03
57056;BME280;42945;51.718;5.324;2022-10-16T12:10:45;101310.50;;;17.02;67.57
57056;BME280;42945;51.718;5.324;2022-10-16T12:18:42;101215.63;;;16.47;68.91
57056;BME280;42945;51.718;5.324;2022-10-16T12:21:08;101349.13;;;16.76;68.75
57056;BME280;42945;51.718;5.324;2022-10-16T12:23:37;101273.09;;;17.01;68.28
57056;BME280;42945;51.718;5.324;2022-10-16T12:26:04;101341.38;;;16.84;65.57
57056;BME280;42945;51.718;5.324;2022-10-16T12:28:30;115484.59;;;100.31;68.81
57056;BME280;42945;51.718;5.324;2022-10-16T12:30:57;101335.13;;;17.19;65.89
57056;BME280;42945;51.718;5.324;2022-10-16T12:35:49;101358.47;;;17.75;64.76
57056;BME280;42945;51.718;5.324;2022-10-16T12:38:21;101308.31;;;17.75;63.94
57056;BME280;42945;51.718;5.324;2022-10-16T12:41:00;101372.94;;;17.83;63.46
57056;BME280;42945;51.718;5.324;2022-10-16T12:46:01;101383.19;;;17.56;64.39
57056;BME280;42945;51.718;5.324;2022-10-16T12:48:27;101301.22;;;16.95;65.40
57056;BME280;42945;51.718;5.324;2022-10-16T12:50:53;101314.69;;;17.51;64.62
57056;BME280;42945;51.718;5.324;2022-10-16T12:56:31;101243.16;;;17.07;64.32
57056;BME280;42945;51.718;5.324;2022-10-16T13:01:10;101324.22;;;17.89;64.24
57056;BME280;42945;51.718;5.324;2022-10-16T13:08:58;101338.44;;;17.56;65.03
57056;BME280;42945;51.718;5.324;2022-10-16T13:21:57;101362.59;;;17.67;62.78
57056;BME280;42945;51.718;5.324;2022-10-16T13:26:57;101416.09;;;17.35;65.15
57056;BME280;42945;51.718;5.324;2022-10-16T13:29:30;101341.25;;;17.66;64.01
57056;BME280;42945;51.718;5.324;2022-10-16T13:31:55;101344.81;;;17.78;63.81
57056;BME280;42945;51.718;5.324;2022-10-16T13:34:21;101349.91;;;17.36;66.13
57056;BME280;42945;51.718;5.324;2022-10-16T13:36:48;101258.09;;;16.51;69.01
57056;BME280;42945;51.718;5.324;2022-10-16T13:39:24;101239.50;;;16.97;66.29
57056;BME280;42945;51.718;5.324;2022-10-16T13:42:06;101382.97;;;17.70;65.38
57056;BME280;42945;51.718;5.324;2022-10-16T13:44:36;101344.31;;;17.61;66.10
57056;BME280;42945;51.718;5.324;2022-10-16T13:47:03;101349.19;;;17.79;64.49
57056;BME280;42945;51.718;5.324;2022-10-16T13:49:29;101363.09;;;17.61;65.92
57056;BME280;42945;51.718;5.324;2022-10-16T13:51:54;101368.59;;;17.94;66.42
57056;BME280;42945;51.718;5.324;2022-10-16T13:54:20;101276.91;;;17.43;64.93
57056;BME280;42945;51.718;5.324;2022-10-16T13:56:49;101346.13;;;17.83;64.46
57056;BME280;42945;51.718;5.324;2022-10-16T13:59:25;101362.47;;;17.80;65.06
57056;BME280;42945;51.718;5.324;2022-10-16T14:01:53;101367.22;;;17.77;63.00
57056;BME280;42945;51.718;5.324;2022-10-16T14:04:19;101384.72;;;17.94;63.47
57056;BME280;42945;51.718;5.324;2022-10-16T14:06:49;101361.63;;;18.02;62.99
57056;BME280;42945;51.718;5.324;2022-10-16T14:09:23;101364.81;;;17.96;64.05
57056;BME280;42945;51.718;5.324;2022-10-16T14:14:44;101257.59;;;16.82;66.67
57056;BME280;42945;51.718;5.324;2022-10-16T14:17:22;101352.72;;;17.57;65.40
57056;BME280;42945;51.718;5.324;2022-10-16T14:19:50;101375.50;;;17.74;65.76
57056;BME280;42945;51.718;5.324;2022-10-16T14:25:00;101265.78;;;16.56;64.58
57056;BME280;42945;51.718;5.324;2022-10-16T14:27:28;101220.88;;;16.13;100.00
57056;BME280;42945;51.718;5.324;2022-10-16T14:32:34;101342.19;;;16.49;70.41
57056;BME280;42945;51.718;5.324;2022-10-16T14:34:59;101402.06;;;16.48;69.81
57056;BME280;42945;51.718;5.324;2022-10-16T14:37:27;101386.22;;;16.45;71.56
57056;BME280;42945;51.718;5.324;2022-10-16T14:39:52;101385.19;;;16.59;73.32